Time;durP1;ratioP1;P1;durP2;ratioP2;P2;SDS_P1;SDS_P2;PMS_P1;PMS_P2;Temp;Humidity;BMP_temperature;BMP_pressure;BME280_temperature;BME280_humidity;BME280_pressure;Samples;Min_cycle;Max_cycle;Signal;HPM_P1;HPM_P2
2021/03/06 00:02:14;;;;;;;13.00;7.20;;;-0.20;47.70;;;;;;4995516;28;20386;-71
2021/03/06 00:04:40;;;;;;;11.83;7.60;;;-0.30;49.00;;;;;;4996090;28;20386;-70
2021/03/06 00:07:06;;;;;;;12.60;7.33;;;-0.20;50.30;;;;;;4995694;28;20394;-70
2021/03/06 00:09:31;;;;;;;12.95;7.20;;;0.10;52.70;;;;;;4995198;28;20402;-69
2021/03/06 00:11:57;;;;;;;10.90;7.35;;;0.20;50.60;;;;;;4995334;28;20402;-70
2021/03/06 00:14:22;;;;;;;11.30;7.27;;;0.30;48.40;;;;;;4995508;28;20792;-70
2021/03/06 00:16:48;;;;;;;11.77;7.17;;;0.30;50.70;;;;;;4996159;28;20888;-70
2021/03/06 00:19:13;;;;;;;13.53;7.63;;;0.10;49.40;;;;;;4995864;28;20406;-70
2021/03/06 00:21:39;;;;;;;15.63;7.72;;;-0.10;49.90;;;;;;4978408;28;20394;-69
2021/03/06 00:24:05;;;;;;;16.85;8.13;;;-0.20;51.50;;;;;;4995869;28;20383;-69
2021/03/06 00:26:31;;;;;;;16.58;7.93;;;-0.30;52.30;;;;;;4995661;28;20730;-69
2021/03/06 00:28:57;;;;;;;17.77;7.90;;;-0.30;52.30;;;;;;4994904;28;20421;-70
2021/03/06 00:31:22;;;;;;;12.05;8.00;;;-0.30;53.10;;;;;;4978023;28;20453;-69
2021/03/06 00:33:48;;;;;;;14.00;7.93;;;-0.30;53.40;;;;;;4995391;28;20414;-70
2021/03/06 00:36:14;;;;;;;14.40;7.90;;;0.10;54.90;;;;;;4978130;28;20394;-70
2021/03/06 00:38:39;;;;;;;14.60;7.80;;;0.60;47.00;;;;;;4995040;28;20489;-69
2021/03/06 00:41:05;;;;;;;11.98;7.68;;;0.90;43.60;;;;;;4995541;28;20383;-70
2021/03/06 00:43:30;;;;;;;9.97;7.60;;;0.80;44.50;;;;;;4994989;28;20386;-70
2021/03/06 00:45:56;;;;;;;11.03;7.60;;;0.40;46.20;;;;;;4994538;28;20390;-70
2021/03/06 00:48:21;;;;;;;13.07;8.13;;;0.30;49.50;;;;;;4993706;28;20426;-70
2021/03/06 00:50:47;;;;;;;12.57;7.82;;;0.10;51.10;;;;;;4993643;28;20387;-70
2021/03/06 00:53:13;;;;;;;12.73;7.80;;;0.10;53.50;;;;;;4995619;28;20849;-70
2021/03/06 00:55:39;;;;;;;16.73;8.67;;;0.10;54.40;;;;;;4996014;28;20425;-69
2021/03/06 00:58:05;;;;;;;14.38;8.77;;;0.00;54.00;;;;;;4995287;28;20486;-70
2021/03/06 01:00:30;;;;;;;13.48;8.00;;;-0.10;54.10;;;;;;4995055;28;20400;-69
2021/03/06 01:02:56;;;;;;;14.45;8.50;;;-0.20;55.40;;;;;;4994793;28;20391;-70
2021/03/06 01:05:22;;;;;;;13.98;9.48;;;-0.20;55.30;;;;;;4995710;28;20395;-69
2021/03/06 01:07:48;;;;;;;14.55;8.95;;;0.10;55.70;;;;;;4977334;28;20896;-70
2021/03/06 01:10:26;;;;;;;17.58;10.00;;;0.10;53.80;;;;;;4994250;28;20467;-71
2021/03/06 01:12:51;;;;;;;15.95;8.98;;;-0.10;56.10;;;;;;4994166;28;20405;-70
2021/03/06 01:15:17;;;;;;;14.63;8.50;;;-0.10;55.60;;;;;;4994171;28;20386;-70
2021/03/06 01:17:43;;;;;;;11.82;8.65;;;-0.20;57.60;;;;;;4994692;28;20910;-69
2021/03/06 01:20:09;;;;;;;12.18;8.30;;;-0.30;57.20;;;;;;4991635;28;20485;-71
2021/03/06 01:22:35;;;;;;;10.80;8.60;;;-0.40;56.90;;;;;;4991686;28;20426;-71
2021/03/06 01:25:00;;;;;;;12.53;8.47;;;-0.10;59.50;;;;;;4991857;28;20426;-71
2021/03/06 01:27:26;;;;;;;15.88;8.15;;;0.00;56.60;;;;;;4991850;28;20390;-70
2021/03/06 01:29:51;;;;;;;15.53;8.13;;;0.00;57.70;;;;;;4985969;28;20885;-70
2021/03/06 01:32:17;;;;;;;11.30;7.60;;;-0.10;56.20;;;;;;4972365;28;20474;-70
2021/03/06 01:34:42;;;;;;;13.23;7.73;;;0.30;53.40;;;;;;4972422;28;20400;-70
2021/03/06 01:37:08;;;;;;;15.88;8.18;;;0.30;51.60;;;;;;4972319;28;20411;-72
2021/03/06 01:39:34;;;;;;;14.45;7.55;;;0.20;52.20;;;;;;4983961;28;20456;-70
2021/03/06 01:41:59;;;;;;;13.40;7.83;;;0.40;49.60;;;;;;4991626;28;20466;-70
2021/03/06 01:44:25;;;;;;;15.40;8.30;;;0.50;49.10;;;;;;4991801;28;20374;-71
2021/03/06 01:46:50;;;;;;;15.30;8.60;;;0.40;49.30;;;;;;4991317;28;20389;-71
2021/03/06 01:49:16;;;;;;;14.00;8.20;;;0.20;50.70;;;;;;4991249;28;20398;-69
2021/03/06 01:51:42;;;;;;;11.83;7.90;;;0.40;50.00;;;;;;4991181;28;20433;-72
2021/03/06 01:54:09;;;;;;;16.00;7.40;;;0.60;46.90;;;;;;4991331;28;21004;-71
2021/03/06 01:56:35;;;;;;;13.10;8.40;;;0.70;46.60;;;;;;4991362;28;20402;-70
2021/03/06 01:59:01;;;;;;;16.77;8.17;;;0.70;45.90;;;;;;4990796;28;20417;-70
2021/03/06 02:01:27;;;;;;;12.32;8.60;;;0.60;45.60;;;;;;4991369;28;20382;-69
2021/03/06 02:03:52;;;;;;;12.50;7.50;;;0.30;45.80;;;;;;4991152;28;20441;-72
2021/03/06 02:06:18;;;;;;;12.23;7.00;;;-0.10;48.80;;;;;;4991301;28;20383;-70
2021/03/06 02:08:46;;;;;;;13.80;8.07;;;-0.30;50.90;;;;;;4990600;28;20922;-70
2021/03/06 02:11:18;;;;;;;15.73;9.30;;;-0.50;52.90;;;;;;4974216;28;20770;-72
2021/03/06 02:13:50;;;;;;;13.20;7.63;;;-0.70;55.00;;;;;;4991066;28;20398;-71
2021/03/06 02:16:24;;;;;;;13.50;8.18;;;-0.70;56.00;;;;;;4991315;28;20390;-71
2021/03/06 02:19:00;;;;;;;10.77;7.07;;;-0.80;56.40;;;;;;4993353;28;20871;-70
2021/03/06 02:21:35;;;;;;;12.07;7.40;;;-0.70;59.80;;;;;;4994105;28;20382;-70
2021/03/06 02:24:23;;;;;;;11.98;7.40;;;-0.50;59.30;;;;;;4993505;28;20398;-69
2021/03/06 02:27:07;;;;;;;15.63;8.13;;;-0.50;57.20;;;;;;4994132;28;20412;-69
2021/03/06 02:29:45;;;;;;;15.10;8.40;;;-0.50;57.20;;;;;;4994049;28;20489;-69
2021/03/06 02:32:19;;;;;;;13.50;7.30;;;-0.70;57.20;;;;;;4993434;28;20916;-70
2021/03/06 02:34:49;;;;;;;14.70;8.60;;;-0.80;58.20;;;;;;4994024;28;20768;-69
2021/03/06 02:37:19;;;;;;;10.07;7.18;;;-0.70;60.10;;;;;;4993781;28;20411;-69
2021/03/06 02:39:49;;;;;;;12.55;8.00;;;-0.10;57.20;;;;;;4993633;28;20417;-69
2021/03/06 02:42:19;;;;;;;11.18;6.80;;;0.20;53.90;;;;;;4994902;28;20394;-70
2021/03/06 02:44:47;;;;;;;9.52;6.88;;;0.30;51.60;;;;;;4997147;28;20390;-69
2021/03/06 02:47:13;;;;;;;11.93;7.22;;;0.20;51.50;;;;;;4996609;28;20406;-69
2021/03/06 02:49:39;;;;;;;12.20;7.50;;;0.20;51.40;;;;;;4997080;28;20742;-71
2021/03/06 02:52:04;;;;;;;13.00;8.00;;;0.10;53.30;;;;;;4996802;28;20443;-70
2021/03/06 02:54:30;;;;;;;14.00;7.73;;;-0.20;55.00;;;;;;4997001;28;20414;-70
2021/03/06 02:56:55;;;;;;;10.70;8.00;;;-0.40;57.00;;;;;;4996087;28;20398;-70
2021/03/06 02:59:46;;;;;;;12.85;8.43;;;-0.50;58.00;;;;;;4995800;28;20390;-69
2021/03/06 03:02:24;;;;;;;14.17;7.93;;;-0.80;59.20;;;;;;4995832;28;20387;-70
2021/03/06 03:05:05;;;;;;;16.00;7.88;;;-0.90;60.80;;;;;;4996130;28;20914;-70
2021/03/06 03:07:53;;;;;;;12.02;8.05;;;-1.10;62.10;;;;;;4995835;28;20402;-70
2021/03/06 03:10:21;;;;;;;13.90;8.60;;;-1.10;62.30;;;;;;4995599;28;20382;-70
2021/03/06 03:12:57;;;;;;;14.57;8.70;;;-1.10;63.70;;;;;;4995977;28;20432;-70
2021/03/06 03:15:30;;;;;;;13.13;7.00;;;-1.20;63.90;;;;;;4996751;28;20776;-72
2021/03/06 03:17:57;;;;;;;11.60;7.40;;;-1.20;64.70;;;;;;4996412;28;20406;-69
2021/03/06 03:20:43;;;;;;;10.98;7.30;;;-1.00;64.00;;;;;;4996215;28;20456;-70
2021/03/06 03:23:16;;;;;;;11.50;7.72;;;-1.10;62.10;;;;;;4995781;28;20445;-70
2021/03/06 03:25:43;;;;;;;10.90;7.85;;;-1.20;62.40;;;;;;4995907;28;20386;-71
2021/03/06 03:28:09;;;;;;;13.73;7.72;;;-1.20;62.70;;;;;;4995776;28;20403;-70
2021/03/06 03:30:36;;;;;;;12.00;7.53;;;-1.20;63.70;;;;;;4995492;28;20402;-71
2021/03/06 03:33:07;;;;;;;10.15;7.43;;;-1.20;64.10;;;;;;4995739;28;20402;-71
2021/03/06 03:35:33;;;;;;;10.43;7.60;;;-1.30;63.90;;;;;;4995721;28;20390;-70
2021/03/06 03:38:01;;;;;;;16.20;7.40;;;-1.30;63.70;;;;;;4995240;28;20417;-69
2021/03/06 03:40:27;;;;;;;10.80;7.30;;;-1.30;64.30;;;;;;4995085;28;20418;-70
2021/03/06 03:42:54;;;;;;;15.05;7.50;;;-1.20;65.60;;;;;;4995744;28;20402;-70
2021/03/06 03:45:21;;;;;;;10.38;6.70;;;-1.20;64.10;;;;;;4996224;28;20386;-70
2021/03/06 03:47:47;;;;;;;12.90;7.53;;;-1.20;64.00;;;;;;4995626;28;20413;-70
2021/03/06 03:50:16;;;;;;;12.27;7.75;;;-1.30;64.70;;;;;;4995798;28;20398;-71
2021/03/06 03:52:49;;;;;;;10.77;7.70;;;-1.40;65.00;;;;;;4994994;28;20437;-69
2021/03/06 03:55:17;;;;;;;9.23;7.20;;;-1.40;66.10;;;;;;4996139;28;20911;-70
2021/03/06 03:57:46;;;;;;;11.65;7.68;;;-1.40;66.80;;;;;;4996536;28;20410;-69
2021/03/06 04:00:16;;;;;;;14.40;8.07;;;-1.40;66.60;;;;;;4995731;28;20465;-69
2021/03/06 04:02:42;;;;;;;13.73;7.55;;;-1.40;66.90;;;;;;4977821;28;20394;-69
2021/03/06 04:05:09;;;;;;;12.95;7.28;;;-1.40;67.10;;;;;;4995875;28;20390;-70
2021/03/06 04:07:46;;;;;;;12.85;7.90;;;-1.50;66.90;;;;;;4993731;28;20444;-69
2021/03/06 04:10:15;;;;;;;12.65;6.50;;;-1.50;67.40;;;;;;4992953;28;20483;-70
2021/03/06 04:12:41;;;;;;;9.45;7.10;;;-1.50;67.40;;;;;;4975977;28;20433;-70
2021/03/06 04:15:08;;;;;;;10.68;6.90;;;-1.50;67.90;;;;;;4993103;28;20394;-72
2021/03/06 04:17:34;;;;;;;17.10;8.20;;;-1.50;68.20;;;;;;4993024;28;20433;-70
2021/03/06 04:20:00;;;;;;;13.45;7.10;;;-1.50;68.50;;;;;;4992852;28;20489;-71
2021/03/06 04:22:26;;;;;;;11.30;7.88;;;-1.50;69.90;;;;;;4992907;28;20470;-70
2021/03/06 04:24:51;;;;;;;10.60;6.90;;;-1.60;70.40;;;;;;4992403;28;20394;-69
2021/03/06 04:27:17;;;;;;;11.70;8.20;;;-1.50;71.10;;;;;;4992529;28;20410;-69
2021/03/06 04:29:42;;;;;;;14.82;7.15;;;-1.50;70.60;;;;;;4992550;28;20429;-70
2021/03/06 04:32:08;;;;;;;11.80;7.45;;;-1.50;70.30;;;;;;4992868;28;20402;-70
2021/03/06 04:34:33;;;;;;;10.67;7.67;;;-1.50;70.00;;;;;;4992826;28;20402;-71
2021/03/06 04:36:59;;;;;;;9.40;7.10;;;-1.40;69.60;;;;;;4992772;28;20743;-73
2021/03/06 04:39:25;;;;;;;11.40;7.72;;;-1.40;70.40;;;;;;4992817;28;20390;-73
2021/03/06 04:41:50;;;;;;;8.37;6.50;;;-1.40;71.00;;;;;;4992869;28;20389;-72
2021/03/06 04:44:16;;;;;;;10.37;7.33;;;-1.20;70.10;;;;;;4992552;28;20445;-73
2021/03/06 04:46:41;;;;;;;11.67;7.70;;;-1.20;69.40;;;;;;4992832;28;20425;-72
2021/03/06 04:49:07;;;;;;;15.10;7.38;;;-1.20;69.60;;;;;;4992578;28;20387;-72
2021/03/06 04:51:32;;;;;;;10.30;7.00;;;-1.20;70.30;;;;;;4992427;28;20422;-73
2021/03/06 04:53:58;;;;;;;12.53;7.13;;;-1.10;69.40;;;;;;4992223;28;20394;-71
2021/03/06 04:56:24;;;;;;;11.15;6.93;;;-1.20;68.20;;;;;;4974902;28;20457;-72
2021/03/06 04:58:51;;;;;;;10.80;7.17;;;-1.10;67.90;;;;;;4992256;28;20418;-72
2021/03/06 05:01:16;;;;;;;8.37;6.70;;;-1.10;67.30;;;;;;4992245;28;20985;-72
2021/03/06 05:03:42;;;;;;;8.23;6.40;;;-1.10;65.30;;;;;;4974388;28;20457;-72
2021/03/06 05:06:07;;;;;;;12.53;6.73;;;-1.10;64.20;;;;;;4992035;28;20390;-71
2021/03/06 05:08:33;;;;;;;12.03;7.10;;;-1.20;63.90;;;;;;4992322;28;20425;-72
2021/03/06 05:10:59;;;;;;;12.65;6.97;;;-1.00;63.40;;;;;;4991163;28;20395;-72
2021/03/06 05:13:24;;;;;;;11.17;7.20;;;-1.10;63.80;;;;;;4992172;28;20482;-72
2021/03/06 05:15:50;;;;;;;10.30;7.80;;;-1.10;64.50;;;;;;4974550;28;20764;-72
2021/03/06 05:18:16;;;;;;;15.15;7.97;;;-1.10;65.40;;;;;;4992048;28;20402;-72
2021/03/06 05:20:41;;;;;;;8.30;6.40;;;-1.20;65.60;;;;;;4991856;28;20386;-72
2021/03/06 05:23:07;;;;;;;11.07;7.20;;;-0.90;67.20;;;;;;4992027;28;20390;-72
2021/03/06 05:25:32;;;;;;;10.37;7.13;;;-0.90;67.00;;;;;;4992103;28;21037;-73
2021/03/06 05:27:58;;;;;;;12.73;7.38;;;-0.80;63.90;;;;;;4991823;28;20745;-72
2021/03/06 05:30:23;;;;;;;13.07;7.10;;;-0.90;63.40;;;;;;4991677;28;20442;-72
2021/03/06 05:32:49;;;;;;;12.17;7.20;;;-0.80;62.00;;;;;;4973883;28;20445;-73
2021/03/06 05:35:15;;;;;;;8.50;6.60;;;-0.90;61.50;;;;;;4991840;28;20952;-73
2021/03/06 05:37:40;;;;;;;14.45;6.53;;;-1.10;61.10;;;;;;4991579;28;20414;-71
2021/03/06 05:40:06;;;;;;;10.13;7.33;;;-1.10;61.80;;;;;;4991602;28;20463;-72
2021/03/06 05:42:35;;;;;;;11.48;7.30;;;-1.20;62.40;;;;;;4991299;28;20919;-73
2021/03/06 05:45:01;;;;;;;10.43;7.25;;;-1.20;63.20;;;;;;4991500;28;20757;-73
2021/03/06 05:47:28;;;;;;;13.40;7.47;;;-1.20;62.60;;;;;;4991483;28;20402;-73
2021/03/06 05:49:54;;;;;;;11.40;7.28;;;-1.10;63.10;;;;;;4991612;28;20412;-72
2021/03/06 05:52:20;;;;;;;10.23;7.53;;;-1.00;61.30;;;;;;4991238;28;20479;-70
2021/03/06 05:54:49;;;;;;;12.40;7.10;;;-1.00;61.20;;;;;;4985426;28;20499;-71
2021/03/06 05:57:16;;;;;;;10.13;6.90;;;-1.00;60.20;;;;;;4991032;28;20500;-71
2021/03/06 05:59:44;;;;;;;11.75;7.30;;;-1.00;62.40;;;;;;4989331;28;20383;-71
2021/03/06 06:02:11;;;;;;;12.90;7.47;;;-1.10;62.80;;;;;;4989954;28;20776;-70
2021/03/06 06:04:38;;;;;;;18.30;8.57;;;-1.30;63.80;;;;;;4991207;28;20394;-71
2021/03/06 06:07:04;;;;;;;15.20;8.03;;;-1.30;65.10;;;;;;4991107;28;20401;-72
2021/03/06 06:09:29;;;;;;;11.63;7.50;;;-1.40;64.70;;;;;;4990758;28;20395;-71
2021/03/06 06:11:55;;;;;;;11.23;7.60;;;-1.40;64.70;;;;;;4990976;28;20398;-71
2021/03/06 06:14:21;;;;;;;12.83;9.13;;;-1.40;65.60;;;;;;4990931;28;20389;-71
2021/03/06 06:16:47;;;;;;;11.90;7.50;;;-1.40;66.10;;;;;;4990522;28;20429;-71
2021/03/06 06:19:13;;;;;;;13.75;7.90;;;-1.30;65.70;;;;;;4990507;28;20409;-70
2021/03/06 06:21:47;;;;;;;16.87;8.47;;;-1.30;65.80;;;;;;4991010;28;20821;-72
2021/03/06 06:24:19;;;;;;;13.85;8.00;;;-1.40;65.80;;;;;;4990997;28;20468;-72
2021/03/06 06:26:57;;;;;;;11.40;7.18;;;-1.40;65.90;;;;;;4990770;28;20436;-71
2021/03/06 06:29:37;;;;;;;15.43;8.38;;;-1.30;66.30;;;;;;4990719;28;20460;-71
2021/03/06 06:32:04;;;;;;;12.77;7.60;;;-1.30;66.50;;;;;;4990955;28;20517;-71
2021/03/06 06:34:30;;;;;;;12.68;7.85;;;-1.30;66.80;;;;;;4986333;28;20405;-71
2021/03/06 06:36:55;;;;;;;13.43;8.35;;;-1.30;67.40;;;;;;4994465;28;20381;-70
2021/03/06 06:39:29;;;;;;;13.13;7.25;;;-1.30;67.50;;;;;;4990902;28;20402;-71
2021/03/06 06:41:59;;;;;;;12.17;8.03;;;-1.20;66.10;;;;;;4983937;28;20396;-71
2021/03/06 06:44:27;;;;;;;9.63;7.30;;;-1.20;66.60;;;;;;4980894;28;20829;-71
2021/03/06 06:46:53;;;;;;;12.30;6.50;;;-1.10;66.40;;;;;;4990083;28;20548;-70
2021/03/06 06:49:20;;;;;;;9.10;6.00;;;-0.80;65.60;;;;;;4983948;28;20481;-71
2021/03/06 06:52:03;;;;;;;13.33;7.63;;;-0.80;64.60;;;;;;4975291;28;20880;-71
2021/03/06 06:54:30;;;;;;;9.77;6.60;;;-0.80;62.80;;;;;;4982253;28;20406;-70
2021/03/06 06:57:16;;;;;;;10.73;7.32;;;-0.80;61.80;;;;;;4981241;28;20507;-71
2021/03/06 07:00:03;;;;;;;16.42;7.80;;;-0.80;62.80;;;;;;4988030;28;20406;-71
2021/03/06 07:02:29;;;;;;;9.95;6.88;;;-0.70;62.40;;;;;;4987566;28;20394;-71
2021/03/06 07:05:01;;;;;;;11.13;7.40;;;-0.60;62.20;;;;;;4989075;28;20887;-72
2021/03/06 07:07:37;;;;;;;10.98;7.25;;;-0.50;62.90;;;;;;4990294;28;20395;-70
2021/03/06 07:10:10;;;;;;;14.00;7.90;;;-0.40;62.60;;;;;;4989961;28;20791;-75
2021/03/06 07:12:38;;;;;;;12.95;7.15;;;-0.20;62.00;;;;;;4983778;28;20404;-71
2021/03/06 07:15:13;;;;;;;11.48;7.85;;;0.00;61.10;;;;;;4982220;28;20450;-74
2021/03/06 07:17:41;;;;;;;14.02;7.32;;;0.50;54.90;;;;;;4971835;28;20468;-75
2021/03/06 07:20:10;;;;;;;16.75;7.90;;;0.60;54.70;;;;;;4989386;28;20398;-76
2021/03/06 07:22:36;;;;;;;12.40;7.80;;;0.60;54.50;;;;;;4986778;28;20394;-72
2021/03/06 07:25:02;;;;;;;14.30;8.30;;;0.60;54.20;;;;;;4989846;28;20401;-71
2021/03/06 07:27:28;;;;;;;11.25;7.97;;;0.60;53.50;;;;;;4973466;28;20495;-72
2021/03/06 07:29:53;;;;;;;14.95;7.93;;;0.70;52.40;;;;;;4995523;28;20817;-72
2021/03/06 07:32:23;;;;;;;14.87;7.87;;;0.70;51.40;;;;;;4994175;28;20556;-75
2021/03/06 07:34:52;;;;;;;17.98;8.98;;;0.80;50.20;;;;;;4997971;28;20425;-74
2021/03/06 07:37:20;;;;;;;13.75;9.20;;;0.90;50.20;;;;;;4994368;28;20755;-74
2021/03/06 07:39:49;;;;;;;13.37;7.63;;;1.00;50.00;;;;;;4997276;28;20405;-74
2021/03/06 07:42:29;;;;;;;14.00;8.48;;;1.20;49.10;;;;;;4991626;28;20388;-75
2021/03/06 07:44:56;;;;;;;10.40;7.82;;;1.40;47.50;;;;;;4988761;28;20401;-74
2021/03/06 07:47:31;;;;;;;10.73;6.65;;;1.60;45.90;;;;;;4997822;28;20413;-73
2021/03/06 07:49:59;;;;;;;13.20;7.33;;;1.80;44.20;;;;;;4993479;28;20464;-74
2021/03/06 07:52:25;;;;;;;12.10;7.40;;;1.80;42.40;;;;;;4994850;28;20427;-74
2021/03/06 07:54:52;;;;;;;12.50;7.20;;;2.00;40.60;;;;;;4997745;28;20443;-74
2021/03/06 07:57:18;;;;;;;12.07;6.90;;;2.10;39.00;;;;;;4984693;28;20418;-74
2021/03/06 07:59:52;;;;;;;12.65;6.40;;;2.10;38.10;;;;;;4988907;28;20858;-74
2021/03/06 08:02:35;;;;;;;17.88;8.05;;;2.20;37.90;;;;;;4984446;28;20712;-75
2021/03/06 08:05:01;;;;;;;10.95;6.32;;;2.60;36.50;;;;;;4979921;28;20750;-73
2021/03/06 08:07:47;;;;;;;16.40;6.63;;;2.80;34.50;;;;;;4982728;28;20405;-74
2021/03/06 08:10:14;;;;;;;15.68;6.80;;;2.80;32.40;;;;;;4996112;28;20453;-74
2021/03/06 08:12:40;;;;;;;13.65;6.45;;;2.90;30.90;;;;;;4996943;28;20411;-74
2021/03/06 08:15:30;;;;;;;7.25;6.03;;;3.20;31.60;;;;;;4998526;28;20398;-74
2021/03/06 08:17:57;;;;;;;11.60;6.72;;;3.40;30.60;;;;;;4998929;28;20768;-74
2021/03/06 08:20:30;;;;;;;10.98;7.07;;;3.30;30.10;;;;;;4997816;28;20400;-75
2021/03/06 08:23:19;;;;;;;13.32;8.45;;;3.30;28.40;;;;;;4999134;28;20414;-71
2021/03/06 08:25:47;;;;;;;17.98;8.00;;;3.30;26.60;;;;;;4993330;28;20431;-73
2021/03/06 08:28:25;;;;;;;13.15;7.15;;;3.40;26.30;;;;;;4990412;28;20418;-75
2021/03/06 08:30:51;;;;;;;9.68;6.50;;;3.50;25.40;;;;;;4990996;28;20757;-77
2021/03/06 08:33:17;;;;;;;9.02;5.93;;;3.50;24.40;;;;;;4992280;28;20401;-78
2021/03/06 08:35:42;;;;;;;7.97;5.85;;;3.60;24.80;;;;;;4988939;28;20919;-73
2021/03/06 08:38:29;;;;;;;10.23;6.00;;;3.80;24.70;;;;;;4997665;28;20398;-75
2021/03/06 08:40:56;;;;;;;10.75;6.05;;;3.80;23.30;;;;;;4991946;28;20437;-74
2021/03/06 08:43:22;;;;;;;8.60;5.80;;;3.90;23.60;;;;;;4988408;28;20453;-74
2021/03/06 08:45:48;;;;;;;13.93;6.25;;;4.20;23.20;;;;;;4992015;28;20540;-74
2021/03/06 08:48:15;;;;;;;11.68;6.20;;;4.50;23.10;;;;;;4991764;28;20453;-73
2021/03/06 08:50:42;;;;;;;11.05;6.10;;;4.50;21.50;;;;;;4989466;28;20772;-71
2021/03/06 08:53:13;;;;;;;10.40;5.90;;;4.40;21.20;;;;;;4990775;28;20457;-73
2021/03/06 08:55:40;;;;;;;11.52;5.68;;;4.70;21.80;;;;;;4977551;28;20425;-72
2021/03/06 08:58:08;;;;;;;7.60;6.20;;;5.00;19.10;;;;;;4993045;28;20421;-71
2021/03/06 09:00:41;;;;;;;9.90;5.57;;;5.20;20.00;;;;;;4994998;28;20407;-70
2021/03/06 09:03:15;;;;;;;12.68;5.75;;;5.30;19.10;;;;;;4994007;28;20390;-71
2021/03/06 09:05:45;;;;;;;10.23;5.97;;;5.10;19.50;;;;;;4995636;28;20857;-72
2021/03/06 09:08:11;;;;;;;9.70;5.10;;;5.00;19.70;;;;;;4992830;28;20417;-71
2021/03/06 09:10:43;;;;;;;9.07;5.87;;;5.40;17.70;;;;;;4991555;28;20841;-70
2021/03/06 09:13:19;;;;;;;12.70;6.00;;;5.50;18.70;;;;;;4992208;28;20428;-71
2021/03/06 09:16:03;;;;;;;10.57;5.00;;;5.50;17.40;;;;;;4993466;28;20390;-71
2021/03/06 09:18:34;;;;;;;9.35;6.00;;;5.40;17.60;;;;;;4993550;28;20437;-73
2021/03/06 09:21:04;;;;;;;9.70;5.20;;;5.30;18.10;;;;;;4993270;28;20398;-72
2021/03/06 09:23:31;;;;;;;7.95;5.30;;;5.30;18.60;;;;;;4993464;28;20391;-71
2021/03/06 09:26:01;;;;;;;8.48;5.38;;;5.20;18.90;;;;;;4993066;28;20389;-71
2021/03/06 09:28:28;;;;;;;10.18;4.82;;;5.30;19.10;;;;;;4992654;28;20406;-71
2021/03/06 09:30:55;;;;;;;10.73;5.15;;;5.30;19.20;;;;;;4993998;28;20406;-71
2021/03/06 09:33:33;;;;;;;10.32;5.22;;;5.40;18.90;;;;;;4993944;28;20800;-71
2021/03/06 09:36:11;;;;;;;7.05;4.72;;;5.50;18.80;;;;;;4993427;28;20397;-72
2021/03/06 09:38:48;;;;;;;5.15;4.65;;;5.50;18.00;;;;;;4992580;28;20414;-72
2021/03/06 09:41:15;;;;;;;7.38;4.32;;;5.50;17.60;;;;;;4993249;28;20395;-71
2021/03/06 09:43:43;;;;;;;8.40;4.72;;;5.50;17.00;;;;;;4993586;28;20386;-70
2021/03/06 09:46:21;;;;;;;8.53;4.80;;;5.50;16.50;;;;;;4991493;28;20434;-70
2021/03/06 09:48:57;;;;;;;13.80;5.35;;;5.60;17.10;;;;;;4990488;28;20428;-72
2021/03/06 09:51:36;;;;;;;8.40;5.10;;;5.70;17.80;;;;;;4991106;28;20951;-72
2021/03/06 09:54:01;;;;;;;12.40;4.47;;;5.60;17.00;;;;;;4991021;28;20893;-71
2021/03/06 09:56:28;;;;;;;8.37;5.30;;;5.60;16.70;;;;;;4991509;28;20386;-72
2021/03/06 09:59:02;;;;;;;7.15;4.40;;;5.70;17.00;;;;;;4991789;28;20446;-71
2021/03/06 10:01:29;;;;;;;6.88;4.50;;;5.80;16.50;;;;;;4975503;28;20383;-72
2021/03/06 10:03:55;;;;;;;10.90;5.22;;;5.90;15.90;;;;;;4993579;28;20903;-71
2021/03/06 10:06:23;;;;;;;8.63;4.60;;;6.10;16.90;;;;;;4993445;28;20404;-71
2021/03/06 10:08:56;;;;;;;9.05;4.65;;;6.30;16.60;;;;;;4993480;28;20394;-71
2021/03/06 10:11:34;;;;;;;7.45;5.20;;;6.40;15.20;;;;;;4991235;28;20460;-72
2021/03/06 10:14:01;;;;;;;6.13;4.80;;;6.40;14.50;;;;;;4990590;28;20398;-71
2021/03/06 10:16:27;;;;;;;10.70;4.93;;;6.40;15.10;;;;;;4991323;28;20401;-70
2021/03/06 10:18:59;;;;;;;5.70;4.80;;;6.50;14.00;;;;;;4990460;28;20529;-71
2021/03/06 10:21:24;;;;;;;5.47;4.40;;;6.50;13.10;;;;;;4991382;28;20457;-71
2021/03/06 10:23:50;;;;;;;7.30;4.50;;;6.40;12.70;;;;;;4990984;28;20406;-71
2021/03/06 10:26:18;;;;;;;6.28;4.38;;;6.40;13.10;;;;;;4990815;28;20403;-71
2021/03/06 10:28:45;;;;;;;5.55;4.15;;;6.50;14.30;;;;;;4990752;28;20465;-72
2021/03/06 10:31:35;;;;;;;6.40;4.10;;;6.70;13.20;;;;;;4991449;28;20397;-71
2021/03/06 10:34:20;;;;;;;8.52;3.85;;;6.80;13.50;;;;;;4991036;28;20413;-72
2021/03/06 10:37:05;;;;;;;4.90;3.50;;;6.80;12.50;;;;;;4991468;28;20490;-73
2021/03/06 10:39:31;;;;;;;6.05;3.38;;;7.00;11.20;;;;;;4974186;28;20410;-72
2021/03/06 10:41:57;;;;;;;5.70;3.30;;;7.00;11.30;;;;;;4991635;28;20374;-71
2021/03/06 10:44:23;;;;;;;4.10;3.58;;;7.10;10.90;;;;;;5001365;28;20903;-73
2021/03/06 10:46:59;;;;;;;4.07;3.63;;;7.20;11.90;;;;;;4996146;28;20399;-72
2021/03/06 10:49:38;;;;;;;3.60;3.38;;;7.40;11.30;;;;;;4997867;28;20867;-71
2021/03/06 10:52:05;;;;;;;7.40;3.40;;;7.40;10.30;;;;;;4993631;28;20491;-71
2021/03/06 10:54:49;;;;;;;8.63;4.23;;;7.30;11.10;;;;;;4992260;28;20960;-72
2021/03/06 10:57:15;;;;;;;4.57;3.47;;;7.10;11.80;;;;;;4992683;28;20387;-71
2021/03/06 10:59:41;;;;;;;5.45;3.08;;;7.30;11.20;;;;;;4991988;28;20390;-71
2021/03/06 11:02:07;;;;;;;5.20;3.30;;;7.30;11.40;;;;;;4991324;28;20386;-71
2021/03/06 11:04:37;;;;;;;5.63;3.40;;;7.40;10.70;;;;;;4994938;28;20784;-72
2021/03/06 11:07:08;;;;;;;4.00;3.50;;;7.40;10.50;;;;;;4993939;28;20424;-72
2021/03/06 11:09:36;;;;;;;4.15;2.90;;;7.20;9.80;;;;;;4976470;28;20816;-72
2021/03/06 11:12:15;;;;;;;4.57;3.00;;;7.20;9.60;;;;;;4994336;28;20387;-71
2021/03/06 11:14:40;;;;;;;3.70;2.70;;;7.30;9.60;;;;;;4994011;28;20386;-72
2021/03/06 11:17:06;;;;;;;3.92;3.20;;;7.00;9.60;;;;;;4994408;28;20417;-71
2021/03/06 11:19:32;;;;;;;4.57;3.20;;;6.70;10.20;;;;;;4997006;28;20397;-70
2021/03/06 11:21:57;;;;;;;4.80;3.20;;;6.80;10.30;;;;;;4994669;28;20474;-72
2021/03/06 11:24:23;;;;;;;5.43;3.60;;;6.70;10.10;;;;;;4994171;28;20402;-73
2021/03/06 11:26:48;;;;;;;3.97;3.40;;;6.70;10.50;;;;;;4993682;28;20812;-71
2021/03/06 11:29:14;;;;;;;5.17;3.40;;;6.70;10.90;;;;;;4994075;28;20398;-70
2021/03/06 11:31:40;;;;;;;5.63;3.20;;;6.90;11.20;;;;;;4993945;28;20389;-71
2021/03/06 11:34:06;;;;;;;7.30;5.00;;;6.90;11.50;;;;;;4993951;28;20493;-71
2021/03/06 11:36:31;;;;;;;4.33;3.93;;;7.00;11.40;;;;;;4994222;28;20556;-71
2021/03/06 11:38:57;;;;;;;7.70;3.50;;;7.10;10.80;;;;;;4993133;28;20426;-71
2021/03/06 11:41:22;;;;;;;4.60;3.50;;;7.10;9.80;;;;;;4993659;28;20395;-72
2021/03/06 11:43:48;;;;;;;4.70;3.30;;;7.00;9.60;;;;;;4993299;28;20480;-71
2021/03/06 11:46:13;;;;;;;7.17;4.40;;;6.90;10.20;;;;;;4993031;28;20390;-71
2021/03/06 11:48:39;;;;;;;5.95;4.15;;;7.00;11.40;;;;;;4993215;28;20394;-70
2021/03/06 11:51:05;;;;;;;6.38;4.10;;;7.10;11.50;;;;;;4993274;28;20394;-73
2021/03/06 11:53:30;;;;;;;9.85;4.72;;;7.00;12.10;;;;;;4993210;28;20387;-73
2021/03/06 11:55:56;;;;;;;6.57;4.68;;;7.20;11.90;;;;;;4991733;28;20757;-71
2021/03/06 11:58:21;;;;;;;7.63;4.57;;;7.40;12.60;;;;;;4993080;28;20414;-70
2021/03/06 12:00:47;;;;;;;7.50;5.30;;;7.40;12.30;;;;;;4995199;28;20406;-71
2021/03/06 12:03:12;;;;;;;4.65;3.88;;;7.50;13.40;;;;;;4977017;28;20418;-71
2021/03/06 12:05:38;;;;;;;4.72;3.70;;;7.70;12.30;;;;;;4994025;28;20401;-71
2021/03/06 12:08:04;;;;;;;7.28;4.00;;;7.70;11.80;;;;;;4993829;28;20468;-72
2021/03/06 12:10:30;;;;;;;8.80;4.57;;;7.90;11.80;;;;;;4993694;28;20386;-73
2021/03/06 12:12:56;;;;;;;4.78;4.32;;;8.10;11.70;;;;;;4992818;28;20398;-71
2021/03/06 12:15:22;;;;;;;6.45;4.30;;;8.10;11.30;;;;;;4993820;28;20400;-71
2021/03/06 12:17:48;;;;;;;6.32;4.30;;;8.00;10.70;;;;;;4993837;28;20509;-71
2021/03/06 12:20:15;;;;;;;6.95;4.70;;;7.80;11.60;;;;;;4994413;28;20430;-71
2021/03/06 12:22:44;;;;;;;7.60;4.53;;;7.80;13.30;;;;;;4994998;28;20407;-72
2021/03/06 12:25:10;;;;;;;11.20;5.35;;;7.90;13.20;;;;;;4994990;28;20398;-71
2021/03/06 12:27:37;;;;;;;7.77;4.90;;;8.00;12.80;;;;;;4994607;28;20545;-70
2021/03/06 12:30:11;;;;;;;7.88;5.32;;;8.20;14.60;;;;;;4993318;28;20428;-70
2021/03/06 12:32:37;;;;;;;10.20;4.28;;;8.10;13.50;;;;;;4990345;28;20478;-71
2021/03/06 12:35:05;;;;;;;9.15;4.70;;;8.30;12.50;;;;;;4993935;28;20473;-71
2021/03/06 12:37:31;;;;;;;13.43;5.50;;;8.30;11.70;;;;;;4992973;28;20422;-72
2021/03/06 12:39:57;;;;;;;7.07;4.27;;;8.40;12.00;;;;;;4993074;28;20394;-71
2021/03/06 12:42:22;;;;;;;6.57;4.50;;;8.20;10.90;;;;;;4993715;28;20390;-71
2021/03/06 12:44:48;;;;;;;6.10;4.40;;;8.20;11.90;;;;;;4993329;28;20868;-71
2021/03/06 12:47:13;;;;;;;8.00;5.00;;;8.10;11.80;;;;;;4993222;28;20395;-71
2021/03/06 12:49:39;;;;;;;9.88;5.82;;;8.50;13.80;;;;;;4992798;28;20393;-71
2021/03/06 12:52:05;;;;;;;7.55;5.10;;;8.50;13.00;;;;;;4992818;28;20394;-71
2021/03/06 12:54:31;;;;;;;8.52;4.82;;;8.70;11.70;;;;;;4992519;28;20402;-70